createdAt,value
2022-10-24T00:00:07.662Z,13.32
2022-10-24T00:01:15.292Z,13.30
2022-10-24T00:02:19.940Z,13.24
2022-10-24T00:03:24.423Z,13.31
2022-10-24T00:04:27.904Z,13.33
2022-10-24T00:05:31.305Z,13.30
2022-10-24T00:06:34.694Z,13.30
2022-10-24T00:07:38.107Z,13.36
2022-10-24T00:08:42.122Z,13.37
2022-10-24T00:09:46.474Z,13.34
2022-10-24T00:10:52.002Z,13.26
2022-10-24T00:11:55.887Z,13.28
2022-10-24T00:12:58.551Z,13.26
2022-10-24T00:14:06.286Z,13.27
2022-10-24T00:15:09.849Z,13.34
2022-10-24T00:16:13.446Z,13.39
2022-10-24T00:17:16.233Z,13.42
2022-10-24T00:18:19.736Z,13.42
2022-10-24T00:19:24.107Z,13.44
2022-10-24T00:20:27.999Z,13.45
2022-10-24T00:21:31.504Z,13.43
2022-10-24T00:22:38.164Z,13.41
2022-10-24T00:23:41.322Z,13.35
2022-10-24T00:24:43.680Z,13.36
2022-10-24T00:25:47.196Z,13.37
2022-10-24T00:26:50.282Z,13.35
2022-10-24T00:27:52.444Z,13.37
2022-10-24T00:28:56.700Z,13.41
2022-10-24T00:29:59.327Z,13.43
2022-10-24T00:31:02.625Z,13.43
2022-10-24T00:32:06.738Z,13.35
2022-10-24T00:33:10.151Z,13.23
2022-10-24T00:34:13.563Z,13.24
2022-10-24T00:35:16.995Z,13.24
2022-10-24T00:36:22.663Z,13.19
2022-10-24T00:37:25.928Z,13.18
2022-10-24T00:38:29.463Z,13.20
2022-10-24T00:39:33.630Z,13.13
2022-10-24T00:40:36.259Z,13.12
2022-10-24T00:41:42.614Z,13.02
2022-10-24T00:42:47.233Z,13.02
2022-10-24T00:43:50.706Z,12.98
2022-10-24T00:44:53.624Z,12.92
2022-10-24T00:45:58.166Z,12.88
2022-10-24T00:47:05.536Z,12.82
2022-10-24T00:48:20.902Z,12.83
2022-10-24T00:49:25.047Z,12.72
2022-10-24T00:50:30.538Z,12.72
2022-10-24T00:51:34.292Z,12.72
2022-10-24T00:52:39.885Z,12.67
2022-10-24T00:53:45.313Z,12.64
2022-10-24T00:54:49.866Z,12.62
2022-10-24T00:55:55.105Z,12.57
2022-10-24T00:57:02.992Z,12.45
2022-10-24T00:58:07.532Z,12.48
2022-10-24T00:59:11.719Z,12.42
2022-10-24T01:00:17.404Z,12.34
2022-10-24T01:01:21.020Z,12.38
2022-10-24T01:02:25.500Z,12.29
2022-10-24T01:03:29.037Z,12.31
2022-10-24T01:04:34.041Z,12.30
2022-10-24T01:05:39.284Z,12.30
2022-10-24T01:06:50.095Z,12.28
2022-10-24T01:07:55.474Z,12.28
2022-10-24T01:09:09.854Z,12.29
2022-10-24T01:10:16.714Z,12.28
2022-10-24T01:11:21.878Z,12.28
2022-10-24T01:12:29.360Z,12.28
2022-10-24T01:13:34.839Z,12.26
2022-10-24T01:14:45.124Z,12.21
2022-10-24T01:15:50.729Z,12.26
2022-10-24T01:17:07.919Z,12.22
2022-10-24T01:18:12.291Z,12.23
2022-10-24T01:19:16.378Z,12.24
2022-10-24T01:20:39.327Z,12.29
2022-10-24T01:21:46.575Z,12.29
2022-10-24T01:23:07.000Z,12.29
2022-10-24T01:24:12.177Z,12.32
2022-10-24T01:25:16.307Z,12.33
2022-10-24T01:26:23.677Z,12.34
2022-10-24T01:27:44.695Z,12.32
2022-10-24T01:28:56.394Z,12.31
2022-10-24T01:30:04.493Z,12.36
2022-10-24T01:31:12.482Z,12.34
2022-10-24T01:32:17.449Z,12.31
2022-10-24T01:33:28.472Z,12.25
2022-10-24T01:34:36.438Z,12.17
2022-10-24T01:35:40.599Z,12.15
2022-10-24T01:36:45.566Z,12.22
2022-10-24T01:37:51.941Z,12.20
2022-10-24T01:38:56.023Z,12.17
2022-10-24T01:40:01.316Z,12.20
2022-10-24T01:41:09.833Z,12.25
2022-10-24T01:42:16.774Z,12.20
2022-10-24T01:43:29.765Z,12.15
2022-10-24T01:44:35.296Z,12.13
2022-10-24T01:45:41.505Z,12.20
2022-10-24T01:46:50.269Z,12.23
2022-10-24T01:47:56.139Z,12.18
2022-10-24T01:49:03.284Z,12.17
2022-10-24T01:50:08.455Z,12.20
2022-10-24T01:51:13.600Z,12.19
2022-10-24T01:52:17.851Z,12.19
2022-10-24T01:53:24.950Z,12.22
2022-10-24T01:54:28.241Z,12.21
2022-10-24T01:55:34.391Z,12.21
2022-10-24T01:56:40.574Z,12.28
2022-10-24T01:57:44.084Z,12.34
2022-10-24T01:58:49.050Z,12.33
2022-10-24T01:59:54.333Z,12.30
2022-10-24T02:00:59.864Z,12.35
2022-10-24T02:02:05.205Z,12.35
2022-10-24T02:03:18.320Z,12.39
2022-10-24T02:04:23.485Z,12.33
2022-10-24T02:05:27.511Z,12.36
2022-10-24T02:06:33.951Z,12.40
2022-10-24T02:07:38.816Z,12.40
2022-10-24T02:08:46.801Z,12.40
2022-10-24T02:09:51.987Z,12.47
2022-10-24T02:10:58.521Z,12.53
2022-10-24T02:12:02.237Z,12.52
2022-10-24T02:13:10.991Z,12.59
2022-10-24T02:14:18.681Z,12.47
2022-10-24T02:15:23.707Z,12.42
2022-10-24T02:16:27.537Z,12.40
2022-10-24T02:17:30.733Z,12.49
2022-10-24T02:18:35.172Z,12.50
2022-10-24T02:19:39.304Z,12.46
2022-10-24T02:20:46.662Z,12.38
2022-10-24T02:21:54.763Z,12.37
2022-10-24T02:23:01.714Z,12.42
2022-10-24T02:24:23.186Z,12.42
2022-10-24T02:25:27.436Z,12.43
2022-10-24T02:26:33.545Z,12.39
2022-10-24T02:27:42.549Z,12.47
2022-10-24T02:28:48.079Z,12.47
2022-10-24T02:29:54.821Z,12.52
2022-10-24T02:31:03.747Z,12.50
2022-10-24T02:32:08.927Z,12.52
2022-10-24T02:33:12.950Z,12.55
2022-10-24T02:34:18.550Z,12.50
2022-10-24T02:35:24.778Z,12.53
2022-10-24T02:36:30.265Z,12.59
2022-10-24T02:37:34.908Z,12.62
2022-10-24T02:38:42.185Z,12.62
2022-10-24T02:39:49.483Z,12.58
2022-10-24T02:40:58.787Z,12.55
2022-10-24T02:42:03.875Z,12.58
2022-10-24T02:43:10.832Z,12.57
2022-10-24T02:44:16.107Z,12.59
2022-10-24T02:45:19.508Z,12.54
2022-10-24T02:46:24.474Z,12.54
2022-10-24T02:47:30.218Z,12.52
2022-10-24T02:48:34.828Z,12.40
2022-10-24T02:49:37.277Z,12.25
2022-10-24T02:50:41.466Z,12.19
2022-10-24T02:51:47.986Z,12.11
2022-10-24T02:52:51.353Z,12.06
2022-10-24T02:53:58.619Z,11.99
2022-10-24T02:55:02.262Z,11.96
2022-10-24T02:56:05.931Z,11.92
2022-10-24T02:57:09.447Z,11.83
2022-10-24T02:58:12.731Z,11.73
2022-10-24T02:59:16.027Z,11.73
2022-10-24T03:00:19.466Z,11.62
2022-10-24T03:01:22.952Z,11.61
2022-10-24T03:02:26.553Z,11.58
2022-10-24T03:03:31.207Z,11.57
2022-10-24T03:04:36.120Z,11.58
2022-10-24T03:05:39.271Z,11.55
2022-10-24T03:06:43.176Z,11.56
2022-10-24T03:07:46.796Z,11.54
2022-10-24T03:08:49.778Z,11.53
2022-10-24T03:09:52.957Z,11.42
2022-10-24T03:10:56.577Z,11.45
2022-10-24T03:12:00.500Z,11.45
2022-10-24T03:13:04.527Z,11.42
2022-10-24T03:14:06.989Z,11.39
2022-10-24T03:15:10.180Z,11.37
2022-10-24T03:16:14.305Z,11.33
2022-10-24T03:17:18.235Z,11.33
2022-10-24T03:18:22.124Z,11.32
2022-10-24T03:19:25.232Z,11.32
2022-10-24T03:20:28.644Z,11.31
2022-10-24T03:21:31.938Z,11.36
2022-10-24T03:22:34.391Z,11.37
2022-10-24T03:23:37.701Z,11.39
2022-10-24T03:24:44.223Z,11.39
2022-10-24T03:25:47.725Z,11.50
2022-10-24T03:26:51.857Z,11.58
2022-10-24T03:27:54.742Z,11.60
2022-10-24T03:28:57.101Z,11.63
2022-10-24T03:29:59.970Z,11.60
2022-10-24T03:31:03.373Z,11.55
2022-10-24T03:32:07.106Z,11.62
2022-10-24T03:33:11.529Z,11.61
2022-10-24T03:34:14.940Z,11.59
2022-10-24T03:35:18.759Z,11.67
2022-10-24T03:36:26.130Z,11.66
2022-10-24T03:37:29.738Z,11.67
2022-10-24T03:38:33.660Z,11.70
2022-10-24T03:39:42.634Z,11.71
2022-10-24T03:41:48.771Z,11.82
2022-10-24T03:42:52.891Z,11.82
2022-10-24T03:43:56.082Z,11.84
2022-10-24T03:45:00.224Z,11.89
2022-10-24T03:46:06.370Z,11.92
2022-10-24T03:47:09.415Z,11.84
2022-10-24T03:48:12.518Z,11.84
2022-10-24T03:49:15.802Z,11.86
2022-10-24T03:50:20.595Z,11.85
2022-10-24T03:51:23.962Z,11.82
2022-10-24T03:52:28.918Z,11.79
2022-10-24T03:53:31.398Z,11.79
2022-10-24T03:54:36.041Z,11.80
2022-10-24T03:55:39.233Z,11.83
2022-10-24T03:56:48.275Z,11.84
2022-10-24T03:57:51.686Z,11.83
2022-10-24T03:58:58.148Z,11.86
2022-10-24T04:00:06.169Z,11.89
2022-10-24T04:01:11.879Z,11.85
2022-10-24T04:02:15.199Z,11.88
2022-10-24T04:03:18.747Z,11.83
2022-10-24T04:04:21.696Z,11.84
2022-10-24T04:05:25.653Z,11.86
2022-10-24T04:06:31.339Z,11.87
2022-10-24T04:07:35.233Z,11.86
2022-10-24T04:08:38.435Z,11.90
2022-10-24T04:09:41.826Z,11.94
2022-10-24T04:10:44.399Z,11.95
2022-10-24T04:11:50.933Z,11.97
2022-10-24T04:12:56.423Z,11.98
2022-10-24T04:15:06.079Z,12.03
2022-10-24T04:16:10.268Z,12.03
2022-10-24T04:17:13.564Z,12.04
2022-10-24T04:18:15.848Z,12.06
2022-10-24T04:19:19.334Z,12.04
2022-10-24T04:20:24.497Z,12.07
2022-10-24T04:21:27.898Z,12.09
2022-10-24T04:22:31.403Z,12.11
2022-10-24T04:23:41.558Z,12.13
2022-10-24T04:24:45.765Z,12.12
2022-10-24T04:25:52.676Z,12.15
2022-10-24T04:26:58.137Z,12.14
2022-10-24T04:28:01.889Z,12.14
2022-10-24T04:29:05.250Z,12.20
2022-10-24T04:30:15.516Z,12.21
2022-10-24T04:31:18.160Z,12.18
2022-10-24T04:32:21.028Z,12.20
2022-10-24T04:33:25.787Z,12.19
2022-10-24T04:34:30.445Z,12.22
2022-10-24T04:35:34.618Z,12.23
2022-10-24T04:36:37.346Z,12.23
2022-10-24T04:37:40.635Z,12.20
2022-10-24T04:38:43.938Z,12.21
2022-10-24T04:39:47.158Z,12.20
2022-10-24T04:40:52.400Z,12.19
2022-10-24T04:41:56.682Z,12.17
2022-10-24T04:42:59.930Z,12.20
2022-10-24T04:44:03.342Z,12.21
2022-10-24T04:45:07.998Z,12.23
2022-10-24T04:46:11.296Z,12.23
2022-10-24T04:47:14.827Z,12.25
2022-10-24T04:48:21.284Z,12.23
2022-10-24T04:49:28.376Z,12.24
2022-10-24T04:50:32.939Z,12.25
2022-10-24T04:51:36.442Z,12.24
2022-10-24T04:52:40.851Z,12.24
2022-10-24T04:53:43.870Z,12.24
2022-10-24T04:54:47.199Z,12.25
2022-10-24T04:55:49.933Z,12.27
2022-10-24T04:56:53.238Z,12.27
2022-10-24T04:57:57.255Z,12.27
2022-10-24T04:59:00.443Z,12.35
2022-10-24T05:00:04.902Z,12.38
2022-10-24T05:01:08.334Z,12.44
2022-10-24T05:02:11.947Z,12.45
2022-10-24T05:03:15.194Z,12.46
2022-10-24T05:04:19.651Z,12.48
2022-10-24T05:05:22.600Z,12.51
2022-10-24T05:06:26.117Z,12.53
2022-10-24T05:07:30.469Z,12.55
2022-10-24T05:08:33.734Z,12.60
2022-10-24T05:09:38.115Z,12.61
2022-10-24T05:10:44.336Z,12.65
2022-10-24T05:11:47.726Z,12.71
2022-10-24T05:12:52.250Z,12.75
2022-10-24T05:13:55.580Z,12.77
2022-10-24T05:14:59.087Z,12.81
2022-10-24T05:16:01.622Z,12.85
2022-10-24T05:17:05.057Z,12.91
2022-10-24T05:18:08.452Z,12.85
2022-10-24T05:19:14.558Z,12.81
2022-10-24T05:20:18.387Z,12.80
2022-10-24T05:21:21.675Z,12.82
2022-10-24T05:22:25.123Z,12.86
2022-10-24T05:23:27.545Z,12.82
2022-10-24T05:24:30.321Z,12.82
2022-10-24T05:25:33.489Z,12.83
2022-10-24T05:26:37.737Z,12.86
2022-10-24T05:27:40.208Z,12.93
2022-10-24T05:28:43.719Z,12.98
2022-10-24T05:29:47.728Z,13.04
2022-10-24T05:30:50.083Z,13.08
2022-10-24T05:31:53.275Z,13.07
2022-10-24T05:32:57.106Z,13.11
2022-10-24T05:33:59.460Z,13.16
2022-10-24T05:35:02.647Z,13.22
2022-10-24T05:36:06.686Z,13.19
2022-10-24T05:37:11.114Z,13.17
2022-10-24T05:38:14.378Z,13.17
2022-10-24T05:39:18.060Z,13.22
2022-10-24T05:40:21.429Z,13.22
2022-10-24T05:41:25.139Z,13.26
2022-10-24T05:42:30.102Z,13.24
2022-10-24T05:43:34.765Z,13.31
2022-10-24T05:44:38.154Z,13.34
2022-10-24T05:45:41.709Z,13.33
2022-10-24T05:46:45.060Z,13.34
2022-10-24T05:47:48.405Z,13.34
2022-10-24T05:48:53.439Z,13.35
2022-10-24T05:49:56.840Z,13.41
2022-10-24T05:51:00.419Z,13.44
2022-10-24T05:52:03.879Z,13.48
2022-10-24T05:53:09.371Z,13.51
2022-10-24T05:55:18.074Z,13.51
2022-10-24T05:56:20.794Z,13.57
2022-10-24T05:57:24.403Z,13.60
2022-10-24T05:58:28.325Z,13.61
2022-10-24T05:59:32.667Z,13.66
2022-10-24T06:00:36.174Z,13.70
2022-10-24T06:01:39.727Z,13.76
2022-10-24T06:02:43.571Z,13.73
2022-10-24T06:03:47.198Z,13.73
2022-10-24T06:04:50.506Z,13.76
2022-10-24T06:05:54.355Z,13.78
2022-10-24T06:06:57.827Z,13.83
2022-10-24T06:08:02.378Z,13.88
2022-10-24T06:09:05.598Z,13.91
2022-10-24T06:10:09.704Z,13.93
2022-10-24T06:11:13.847Z,13.94
2022-10-24T06:12:17.545Z,13.99
2022-10-24T06:13:19.892Z,14.00
2022-10-24T06:14:23.999Z,14.01
2022-10-24T06:15:28.827Z,14.04
2022-10-24T06:16:32.226Z,14.04
2022-10-24T06:17:34.550Z,14.09
2022-10-24T06:18:39.087Z,14.12
2022-10-24T06:19:42.863Z,14.11
2022-10-24T06:20:46.201Z,14.19
2022-10-24T06:21:48.985Z,14.27
2022-10-24T06:22:53.332Z,14.30
2022-10-24T06:23:55.986Z,14.30
2022-10-24T06:25:03.106Z,14.40
2022-10-24T06:26:10.410Z,14.47
2022-10-24T06:27:14.030Z,14.56
2022-10-24T06:28:17.640Z,14.63
2022-10-24T06:29:21.668Z,14.66
2022-10-24T06:30:25.071Z,14.71
2022-10-24T06:31:28.678Z,14.73
2022-10-24T06:32:31.862Z,14.75
2022-10-24T06:33:35.793Z,14.78
2022-10-24T06:34:39.402Z,14.77
2022-10-24T06:35:43.723Z,14.74
2022-10-24T06:36:46.927Z,14.76
2022-10-24T06:37:49.615Z,14.81
2022-10-24T06:38:54.883Z,14.90
2022-10-24T06:39:58.151Z,14.99
2022-10-24T06:41:02.519Z,15.12
2022-10-24T06:42:10.919Z,15.23
2022-10-24T06:43:14.323Z,15.32
2022-10-24T06:44:17.598Z,15.49
2022-10-24T06:45:22.389Z,15.67
2022-10-24T06:46:25.397Z,15.82
2022-10-24T06:47:28.761Z,15.83
2022-10-24T06:48:33.322Z,15.74
2022-10-24T06:49:36.504Z,15.66
2022-10-24T06:50:41.127Z,15.68
2022-10-24T06:51:43.800Z,15.64
2022-10-24T06:52:46.982Z,15.58
2022-10-24T06:53:50.323Z,15.54
2022-10-24T06:54:53.725Z,15.51
2022-10-24T06:55:58.838Z,15.49
2022-10-24T06:57:01.466Z,15.42
2022-10-24T06:58:07.254Z,15.38
2022-10-24T06:59:11.530Z,15.41
2022-10-24T07:00:17.802Z,15.36
2022-10-24T07:01:23.895Z,15.23
2022-10-24T07:02:26.855Z,15.11
2022-10-24T07:03:29.274Z,15.10
2022-10-24T07:04:32.790Z,15.14
2022-10-24T07:05:37.806Z,15.14
2022-10-24T07:06:41.773Z,15.06
2022-10-24T07:07:45.681Z,15.03
2022-10-24T07:08:49.839Z,15.13
2022-10-24T07:09:57.512Z,15.31
2022-10-24T07:11:00.818Z,15.33
2022-10-24T07:12:04.323Z,15.43
2022-10-24T07:13:06.563Z,15.69
2022-10-24T07:14:12.996Z,16.01
2022-10-24T07:15:17.464Z,16.27
2022-10-24T07:16:20.118Z,16.67
2022-10-24T07:17:23.937Z,17.04
2022-10-24T07:18:27.397Z,17.15
2022-10-24T07:19:34.005Z,17.11
2022-10-24T07:20:36.548Z,17.27
2022-10-24T07:21:42.030Z,17.35
2022-10-24T07:22:45.138Z,17.44
2022-10-24T07:23:53.155Z,17.07
2022-10-24T07:24:58.498Z,16.47
2022-10-24T07:26:04.721Z,16.20
2022-10-24T07:27:07.755Z,16.21
2022-10-24T07:28:11.911Z,16.23
2022-10-24T07:29:16.929Z,16.17
2022-10-24T07:30:19.773Z,16.11
2022-10-24T07:31:23.487Z,15.96
2022-10-24T07:32:26.747Z,15.95
2022-10-24T07:33:31.327Z,15.91
2022-10-24T07:34:35.776Z,15.83
2022-10-24T07:35:43.042Z,15.82
2022-10-24T07:36:47.319Z,15.73
2022-10-24T07:37:50.270Z,15.62
2022-10-24T07:38:55.657Z,15.68
2022-10-24T07:39:59.057Z,15.70
2022-10-24T07:41:08.835Z,15.72
2022-10-24T07:42:12.648Z,15.77
2022-10-24T07:43:16.258Z,15.78
2022-10-24T07:44:19.541Z,15.80
2022-10-24T07:45:23.672Z,15.75
2022-10-24T07:46:27.606Z,15.79
2022-10-24T07:47:30.903Z,15.77
2022-10-24T07:48:37.520Z,15.69
2022-10-24T07:49:40.315Z,15.57
2022-10-24T07:50:45.281Z,15.61
2022-10-24T07:51:49.510Z,15.63
2022-10-24T07:52:53.132Z,15.53
2022-10-24T07:53:58.711Z,15.59
2022-10-24T07:55:03.167Z,15.63
2022-10-24T07:56:12.919Z,15.69
2022-10-24T07:57:16.339Z,15.73
2022-10-24T07:58:20.052Z,15.82
2022-10-24T07:59:40.618Z,15.90
2022-10-24T08:00:27.899Z,15.98
2022-10-24T08:01:31.776Z,15.99
2022-10-24T08:02:35.146Z,15.93
2022-10-24T08:03:39.864Z,15.97
2022-10-24T08:04:43.056Z,15.87
2022-10-24T08:05:49.076Z,15.91
2022-10-24T08:06:52.688Z,16.05
2022-10-24T08:08:00.290Z,16.15
2022-10-24T08:09:03.597Z,16.18
2022-10-24T08:10:10.229Z,16.13
2022-10-24T08:11:15.378Z,16.07
2022-10-24T08:12:18.558Z,16.10
2022-10-24T08:13:22.623Z,16.07
2022-10-24T08:14:28.632Z,15.98
2022-10-24T08:15:33.357Z,15.85
2022-10-24T08:16:38.533Z,15.85
2022-10-24T08:17:41.837Z,15.90
2022-10-24T08:18:49.035Z,15.86
2022-10-24T08:19:52.283Z,15.88
2022-10-24T08:21:03.740Z,15.82
2022-10-24T08:22:06.958Z,15.83
2022-10-24T08:23:11.371Z,15.79
2022-10-24T08:24:14.672Z,15.83
2022-10-24T08:25:18.383Z,15.80
2022-10-24T08:26:23.613Z,15.66
2022-10-24T08:27:27.645Z,15.67
2022-10-24T08:28:30.839Z,15.69
2022-10-24T08:29:36.070Z,15.66
2022-10-24T08:30:40.390Z,15.63
2022-10-24T08:31:43.373Z,15.71
2022-10-24T08:32:48.028Z,15.80
2022-10-24T08:33:55.517Z,15.90
2022-10-24T08:34:59.109Z,15.99
2022-10-24T08:36:04.295Z,16.04
2022-10-24T08:37:09.567Z,16.06
2022-10-24T08:38:12.757Z,16.09
2022-10-24T08:39:17.626Z,16.08
2022-10-24T08:40:22.684Z,16.02
2022-10-24T08:41:28.676Z,15.89
2022-10-24T08:42:32.219Z,15.88
2022-10-24T08:43:35.725Z,15.89
2022-10-24T08:44:40.959Z,15.88
2022-10-24T08:45:50.453Z,15.79
2022-10-24T08:47:01.802Z,15.68
2022-10-24T08:48:13.644Z,15.63
2022-10-24T08:49:30.896Z,15.61
2022-10-24T08:50:34.461Z,15.64
2022-10-24T08:51:44.849Z,15.70
2022-10-24T08:52:50.034Z,15.72
2022-10-24T08:53:56.035Z,15.75
2022-10-24T08:55:04.820Z,15.79
2022-10-24T08:56:07.328Z,15.83
2022-10-24T08:57:11.460Z,15.85
2022-10-24T08:58:19.666Z,15.90
2022-10-24T08:59:25.707Z,15.84
2022-10-24T09:00:32.639Z,15.86
2022-10-24T09:01:44.319Z,15.91
2022-10-24T09:02:49.497Z,15.99
2022-10-24T09:03:56.941Z,15.99
2022-10-24T09:04:59.495Z,16.05
2022-10-24T09:06:04.787Z,16.01
2022-10-24T09:07:13.017Z,16.07
2022-10-24T09:08:21.705Z,16.13
2022-10-24T09:09:31.482Z,16.03
2022-10-24T09:10:39.279Z,15.99
2022-10-24T09:11:52.881Z,15.92
2022-10-24T09:12:57.399Z,15.89
2022-10-24T09:14:05.346Z,16.03
2022-10-24T09:15:11.527Z,16.15
2022-10-24T09:16:18.598Z,16.21
2022-10-24T09:17:26.619Z,16.30
2022-10-24T09:18:32.774Z,16.40
2022-10-24T09:19:36.254Z,16.45
2022-10-24T09:20:39.487Z,16.56
2022-10-24T09:21:45.024Z,16.77
2022-10-24T09:22:47.879Z,17.00
2022-10-24T09:23:51.524Z,17.17
2022-10-24T09:25:05.299Z,17.40
2022-10-24T09:26:12.323Z,17.31
2022-10-24T09:27:17.548Z,17.41
2022-10-24T09:28:22.882Z,17.57
2022-10-24T09:29:27.015Z,17.62
2022-10-24T09:30:32.994Z,17.45
2022-10-24T09:31:35.998Z,17.11
2022-10-24T09:32:40.958Z,17.13
2022-10-24T09:33:48.742Z,17.05
2022-10-24T09:34:52.791Z,17.07
2022-10-24T09:35:59.208Z,17.01
2022-10-24T09:37:01.888Z,17.08
2022-10-24T09:38:25.558Z,17.22
2022-10-24T09:39:31.880Z,17.22
2022-10-24T09:40:36.860Z,16.84
2022-10-24T09:41:40.245Z,16.77
2022-10-24T09:42:47.395Z,16.87
2022-10-24T09:43:57.596Z,16.88
2022-10-24T09:45:04.256Z,16.86
2022-10-24T09:46:14.349Z,16.82
2022-10-24T09:47:25.752Z,17.00
2022-10-24T09:48:33.098Z,16.93
2022-10-24T09:49:37.670Z,17.17
2022-10-24T09:50:42.743Z,17.26
2022-10-24T09:51:49.568Z,17.28
2022-10-24T09:52:54.279Z,17.33
2022-10-24T09:53:59.429Z,17.28
2022-10-24T09:55:06.580Z,17.22
2022-10-24T09:56:11.566Z,17.07
2022-10-24T09:57:19.729Z,16.97
2022-10-24T09:58:26.684Z,17.07
2022-10-24T09:59:34.672Z,16.99
2022-10-24T10:00:38.007Z,17.05
2022-10-24T10:01:43.575Z,17.30
2022-10-24T10:03:03.508Z,17.52
2022-10-24T10:04:10.023Z,17.60
2022-10-24T10:05:21.019Z,17.78
2022-10-24T10:06:25.124Z,17.93
2022-10-24T10:07:29.630Z,18.02
2022-10-24T10:08:34.716Z,17.89
2022-10-24T10:09:40.127Z,17.91
2022-10-24T10:10:44.653Z,17.77
2022-10-24T10:12:02.035Z,17.56
2022-10-24T10:12:55.718Z,17.70
2022-10-24T10:14:01.039Z,17.63
2022-10-24T10:15:07.159Z,17.58
2022-10-24T10:16:15.831Z,17.55
2022-10-24T10:17:20.527Z,17.57
2022-10-24T10:18:28.296Z,17.40
2022-10-24T10:19:33.423Z,17.17
2022-10-24T10:20:40.948Z,17.14
2022-10-24T10:22:01.741Z,17.12
2022-10-24T10:23:24.932Z,16.98
2022-10-24T10:24:42.535Z,16.95
2022-10-24T10:25:46.146Z,16.91
2022-10-24T10:26:48.606Z,17.05
2022-10-24T10:27:52.111Z,16.99
2022-10-24T10:28:59.888Z,16.74
2022-10-24T10:30:16.399Z,16.65
2022-10-24T10:31:22.846Z,16.65
2022-10-24T10:32:28.171Z,16.63
2022-10-24T10:33:38.225Z,16.61
2022-10-24T10:34:42.283Z,16.52
2022-10-24T10:35:48.387Z,16.41
2022-10-24T10:37:05.285Z,16.22
2022-10-24T10:38:15.364Z,16.19
2022-10-24T10:39:36.307Z,16.31
2022-10-24T10:40:50.280Z,16.29
2022-10-24T10:43:03.012Z,16.34
2022-10-24T10:44:11.575Z,16.42
2022-10-24T10:45:34.468Z,16.41
2022-10-24T10:46:40.995Z,16.36
2022-10-24T10:47:48.261Z,16.33
2022-10-24T10:48:58.450Z,16.31
2022-10-24T10:50:02.797Z,16.24
2022-10-24T10:51:10.166Z,16.24
2022-10-24T10:52:14.395Z,16.29
2022-10-24T10:53:36.795Z,16.31
2022-10-24T10:54:54.089Z,16.21
2022-10-24T10:56:06.474Z,16.09
2022-10-24T10:57:11.032Z,16.09
2022-10-24T10:58:22.580Z,16.00
2022-10-24T10:59:43.097Z,16.00
2022-10-24T11:00:54.450Z,15.93
2022-10-24T11:02:02.927Z,15.92
2022-10-24T11:03:27.987Z,16.01
2022-10-24T11:04:33.363Z,16.09
2022-10-24T11:05:40.417Z,16.13
2022-10-24T11:06:44.769Z,16.34
2022-10-24T11:07:56.650Z,16.18
2022-10-24T11:09:08.375Z,16.27
2022-10-24T11:10:13.651Z,16.47
2022-10-24T11:11:18.947Z,16.50
2022-10-24T11:12:40.308Z,16.43
2022-10-24T11:13:46.001Z,16.35
2022-10-24T11:14:56.792Z,16.26
2022-10-24T11:16:03.153Z,16.33
2022-10-24T11:17:21.071Z,16.29
2022-10-24T11:20:07.981Z,16.34
2022-10-24T11:21:15.237Z,16.38
2022-10-24T11:22:32.643Z,16.37
2022-10-24T11:24:03.125Z,16.48
2022-10-24T11:25:10.759Z,16.52
2022-10-24T11:26:22.612Z,16.45
2022-10-24T11:27:38.144Z,16.56
2022-10-24T11:29:02.539Z,16.61
2022-10-24T11:30:15.238Z,16.59
2022-10-24T11:31:23.662Z,16.49
2022-10-24T11:32:38.785Z,16.60
2022-10-24T11:33:52.162Z,16.49
2022-10-24T11:35:05.035Z,16.60
2022-10-24T11:36:16.913Z,16.65
2022-10-24T11:37:44.322Z,16.75
2022-10-24T11:38:52.002Z,16.79
2022-10-24T11:40:01.839Z,16.73
2022-10-24T11:41:12.137Z,16.75
2022-10-24T11:42:24.784Z,16.76
2022-10-24T11:43:36.532Z,16.67
2022-10-24T11:44:46.142Z,16.80
2022-10-24T11:45:59.188Z,16.81
2022-10-24T11:47:14.148Z,16.67
2022-10-24T11:48:23.968Z,16.49
2022-10-24T11:49:50.611Z,16.43
2022-10-24T11:50:59.355Z,16.29
2022-10-24T11:52:09.936Z,16.24
2022-10-24T11:53:17.934Z,16.38
2022-10-24T11:54:23.573Z,16.42
2022-10-24T11:55:27.772Z,16.36
2022-10-24T11:56:34.073Z,16.19
2022-10-24T11:57:37.186Z,16.33
2022-10-24T11:58:42.569Z,16.41
2022-10-24T11:59:47.309Z,16.40
2022-10-24T12:00:54.593Z,16.49
2022-10-24T12:02:05.304Z,16.51
2022-10-24T12:03:09.636Z,16.47
2022-10-24T12:04:24.914Z,16.30
2022-10-24T12:05:49.128Z,16.32
2022-10-24T12:07:00.049Z,16.48
2022-10-24T12:08:10.970Z,16.30
2022-10-24T12:09:18.245Z,16.49
2022-10-24T12:10:23.583Z,16.35
2022-10-24T12:11:46.870Z,16.50
2022-10-24T12:13:09.425Z,16.70
2022-10-24T12:14:20.418Z,16.72
2022-10-24T12:15:46.586Z,16.76
2022-10-24T12:17:06.061Z,16.62
2022-10-24T12:18:14.381Z,16.40
2022-10-24T12:19:23.617Z,16.58
2022-10-24T12:20:27.767Z,16.51
2022-10-24T12:21:38.476Z,16.56
2022-10-24T12:22:44.714Z,16.69
2022-10-24T12:23:59.584Z,16.70
2022-10-24T12:25:07.173Z,16.47
2022-10-24T12:26:13.066Z,16.42
2022-10-24T12:27:23.364Z,16.43
2022-10-24T12:28:27.068Z,16.54
2022-10-24T12:29:34.197Z,16.56
2022-10-24T12:30:37.734Z,16.64
2022-10-24T12:31:40.090Z,16.71
2022-10-24T12:32:48.165Z,16.77
2022-10-24T12:34:10.096Z,16.76
2022-10-24T12:35:36.247Z,16.71
2022-10-24T12:36:43.730Z,16.73
2022-10-24T12:37:47.005Z,16.79
2022-10-24T12:39:01.502Z,16.71
2022-10-24T12:40:24.528Z,16.62
2022-10-24T12:41:35.382Z,16.61
2022-10-24T12:42:40.637Z,16.64
2022-10-24T12:43:44.353Z,16.58
2022-10-24T12:44:51.573Z,16.42
2022-10-24T12:45:54.970Z,16.39
2022-10-24T12:46:58.614Z,16.42
2022-10-24T12:48:19.677Z,16.39
2022-10-24T12:49:30.586Z,16.41
2022-10-24T12:50:36.066Z,16.47
2022-10-24T12:51:40.428Z,16.55
2022-10-24T12:52:47.894Z,16.64
2022-10-24T12:54:05.405Z,16.58
2022-10-24T12:55:09.640Z,16.57
2022-10-24T12:56:14.697Z,16.43
2022-10-24T12:57:19.891Z,16.38
2022-10-24T12:58:30.171Z,16.58
2022-10-24T12:59:34.939Z,16.67
2022-10-24T13:00:39.635Z,16.76
2022-10-24T13:01:47.357Z,16.89
2022-10-24T13:03:09.583Z,16.78
2022-10-24T13:04:23.523Z,16.73
2022-10-24T13:05:31.508Z,16.65
2022-10-24T13:06:40.995Z,16.52
2022-10-24T13:07:53.135Z,16.45
2022-10-24T13:09:04.845Z,16.34
2022-10-24T13:10:15.635Z,16.29
2022-10-24T13:11:27.701Z,16.39
2022-10-24T13:12:42.895Z,16.60
2022-10-24T13:14:03.956Z,16.55
2022-10-24T13:15:13.820Z,16.65
2022-10-24T13:16:20.259Z,16.56
2022-10-24T13:17:28.245Z,16.60
2022-10-24T13:18:34.258Z,16.57
2022-10-24T13:19:37.658Z,16.60
2022-10-24T13:20:42.715Z,16.43
2022-10-24T13:21:58.467Z,16.44
2022-10-24T13:23:03.225Z,16.49
2022-10-24T13:24:10.934Z,16.63
2022-10-24T13:25:21.503Z,16.68
2022-10-24T13:26:32.117Z,16.66
2022-10-24T13:27:36.441Z,16.57
2022-10-24T13:28:44.779Z,16.34
2022-10-24T13:29:51.162Z,16.26
2022-10-24T13:31:03.331Z,16.27
2022-10-24T13:32:08.541Z,16.35
2022-10-24T13:33:36.591Z,16.28
2022-10-24T13:34:47.513Z,16.28
2022-10-24T13:35:50.297Z,16.23
2022-10-24T13:36:55.571Z,16.13
2022-10-24T13:38:03.784Z,16.14
2022-10-24T13:39:08.019Z,16.08
2022-10-24T13:40:13.017Z,16.04
2022-10-24T13:41:23.176Z,16.14
2022-10-24T13:42:29.691Z,16.16
2022-10-24T13:43:33.726Z,16.18
2022-10-24T13:44:45.390Z,16.10
2022-10-24T13:45:56.135Z,16.01
2022-10-24T13:47:01.491Z,15.96
2022-10-24T13:48:21.939Z,16.13
2022-10-24T13:49:38.397Z,16.19
2022-10-24T13:50:46.814Z,16.13
2022-10-24T13:51:54.257Z,15.97
2022-10-24T13:52:59.735Z,16.10
2022-10-24T13:54:03.981Z,16.23
2022-10-24T13:55:15.010Z,16.24
2022-10-24T13:56:18.710Z,16.29
2022-10-24T13:57:23.810Z,16.35
2022-10-24T13:58:26.254Z,16.35
2022-10-24T13:59:30.969Z,16.27
2022-10-24T14:00:37.429Z,16.11
2022-10-24T14:01:41.455Z,16.17
2022-10-24T14:02:45.534Z,16.19
2022-10-24T14:03:49.930Z,16.18
2022-10-24T14:04:57.527Z,16.19
2022-10-24T14:06:00.710Z,16.23
2022-10-24T14:07:04.632Z,16.19
2022-10-24T14:08:12.734Z,16.19
2022-10-24T14:09:16.866Z,16.14
2022-10-24T14:10:21.613Z,16.13
2022-10-24T14:11:27.011Z,16.10
2022-10-24T14:12:32.199Z,16.09
2022-10-24T14:13:37.365Z,16.04
2022-10-24T14:14:40.468Z,16.05
2022-10-24T14:15:51.942Z,16.04
2022-10-24T14:17:05.691Z,16.05
2022-10-24T14:18:14.589Z,16.04
2022-10-24T14:19:29.545Z,15.99
2022-10-24T14:20:32.744Z,15.98